Time;durP1;ratioP1;P1;durP2;ratioP2;P2;SDS_P1;SDS_P2;PMS_P1;PMS_P2;Temp;Humidity;BMP_temperature;BMP_pressure;BME280_temperature;BME280_humidity;BME280_pressure;Samples;Min_cycle;Max_cycle;Signal;HPM_P1;HPM_P2
2023/12/05 00:00:03;;;;;;;;;;;-2.00;99.90;;;;;;5106669;28;19920;-70
2023/12/05 00:02:32;;;;;;;;;;;-1.90;99.90;;;;;;5106674;28;19983;-71
2023/12/05 00:04:59;;;;;;;;;;;-1.90;99.90;;;;;;5106601;28;19986;-71
2023/12/05 00:07:26;;;;;;;;;;;-1.90;99.90;;;;;;5106953;28;20162;-70
2023/12/05 00:09:53;;;;;;;;;;;-2.00;99.90;;;;;;5106596;28;19958;-69
2023/12/05 00:12:20;;;;;;;;;;;-2.00;99.90;;;;;;5106320;28;20124;-71
2023/12/05 00:14:46;;;;;;;;;;;-2.00;99.90;;;;;;5106483;28;19927;-71
2023/12/05 00:17:13;;;;;;;;;;;-2.00;99.90;;;;;;5106704;28;20117;-71
2023/12/05 00:19:40;;;;;;;;;;;-2.00;99.90;;;;;;5106814;28;19927;-71
2023/12/05 00:22:08;;;;;;;;;;;-1.90;99.90;;;;;;5106552;28;19932;-71
2023/12/05 00:24:35;;;;;;;;;;;-1.90;99.90;;;;;;5106462;28;20129;-71
2023/12/05 00:27:01;;;;;;;;;;;-2.00;99.90;;;;;;5106254;28;20007;-70
2023/12/05 00:29:28;;;;;;;;;;;-2.00;99.90;;;;;;5106381;28;19920;-70
2023/12/05 00:31:55;;;;;;;;;;;-1.90;99.90;;;;;;5106484;28;19920;-70
2023/12/05 00:34:21;;;;;;;;;;;-1.90;99.90;;;;;;5106153;28;19920;-70
2023/12/05 00:36:47;;;;;;;;;;;-1.80;99.90;;;;;;5106194;28;20078;-70
2023/12/05 00:39:15;;;;;;;;;;;-1.70;99.90;;;;;;5106103;28;19948;-71
2023/12/05 00:41:42;;;;;;;;;;;-1.70;99.90;;;;;;5106048;28;19920;-70
2023/12/05 00:44:09;;;;;;;;;;;-1.60;99.90;;;;;;5105972;28;19920;-70
2023/12/05 00:46:36;;;;;;;;;;;-1.60;99.90;;;;;;5105407;28;20206;-70
2023/12/05 00:49:02;;;;;;;;;;;-1.60;99.90;;;;;;5106016;28;19975;-70
2023/12/05 00:51:29;;;;;;;;;;;-1.60;99.90;;;;;;5105840;28;20261;-71
2023/12/05 00:53:55;;;;;;;;;;;-1.50;99.90;;;;;;5105671;28;19920;-70
2023/12/05 00:56:23;;;;;;;;;;;-1.50;99.90;;;;;;5106082;28;20170;-71
2023/12/05 00:58:50;;;;;;;;;;;-1.50;99.90;;;;;;5105966;28;19926;-69
2023/12/05 01:01:18;;;;;;;;;;;-1.50;99.90;;;;;;5106052;28;19927;-70
2023/12/05 01:03:46;;;;;;;;;;;-1.50;99.90;;;;;;5105844;28;19927;-70
2023/12/05 01:06:13;;;;;;;;;;;-1.50;99.90;;;;;;5106249;28;19983;-71
2023/12/05 01:08:40;;;;;;;;;;;-1.40;99.90;;;;;;5106376;28;19920;-71
2023/12/05 01:11:07;;;;;;;;;;;-1.40;99.90;;;;;;5105672;28;19924;-71
2023/12/05 01:13:35;;;;;;;;;;;-1.40;99.90;;;;;;5104965;28;19920;-71
2023/12/05 01:16:03;;;;;;;;;;;-1.40;99.90;;;;;;5105260;28;19959;-71
2023/12/05 01:18:29;;;;;;;;;;;-1.40;99.90;;;;;;5105528;28;19991;-71
2023/12/05 01:20:55;;;;;;;;;;;-1.40;99.90;;;;;;5105194;28;19923;-71
2023/12/05 01:23:22;;;;;;;;;;;-1.40;99.90;;;;;;5105300;28;19982;-71
2023/12/05 01:25:49;;;;;;;;;;;-1.40;99.90;;;;;;5104997;28;19982;-71
2023/12/05 01:28:15;;;;;;;;;;;-1.30;99.90;;;;;;5105303;28;19927;-71
2023/12/05 01:30:43;;;;;;;;;;;-1.30;99.90;;;;;;5105320;28;19983;-71
2023/12/05 01:33:10;;;;;;;;;;;-1.40;99.90;;;;;;5105243;28;19920;-71
2023/12/05 01:35:37;;;;;;;;;;;-1.40;99.90;;;;;;5104731;28;20145;-70
2023/12/05 01:38:03;;;;;;;;;;;-1.40;99.90;;;;;;5105128;28;19988;-70
2023/12/05 01:40:30;;;;;;;;;;;-1.30;99.90;;;;;;5105156;28;19992;-71
2023/12/05 01:42:56;;;;;;;;;;;-1.30;99.90;;;;;;5104889;28;19926;-71
2023/12/05 01:45:23;;;;;;;;;;;-1.30;99.90;;;;;;5099466;28;19920;-71
2023/12/05 01:47:51;;;;;;;;;;;-1.20;99.90;;;;;;5104570;28;19920;-71
2023/12/05 01:50:25;;;;;;;;;;;-1.30;99.90;;;;;;5105121;28;19980;-71
2023/12/05 01:52:52;;;;;;;;;;;-1.30;99.90;;;;;;5104641;28;19987;-71
2023/12/05 01:55:20;;;;;;;;;;;-1.20;99.90;;;;;;5104640;28;19927;-70
2023/12/05 01:57:47;;;;;;;;;;;-1.20;99.90;;;;;;5103541;28;19955;-71
2023/12/05 02:00:14;;;;;;;;;;;-1.10;99.90;;;;;;5104744;28;19965;-71
2023/12/05 02:02:41;;;;;;;;;;;-1.10;99.90;;;;;;5104306;28;20289;-70
2023/12/05 02:05:10;;;;;;;;;;;-1.10;99.90;;;;;;5101751;28;19924;-70
2023/12/05 02:07:37;;;;;;;;;;;-1.10;99.90;;;;;;5104475;28;19926;-71
2023/12/05 02:10:06;;;;;;;;;;;-1.00;99.90;;;;;;5104120;28;19920;-70
2023/12/05 02:12:33;;;;;;;;;;;-0.90;99.90;;;;;;5099251;28;20210;-70
2023/12/05 02:14:59;;;;;;;;;;;-0.90;99.90;;;;;;5104221;28;19926;-70
2023/12/05 02:17:28;;;;;;;;;;;-0.80;99.90;;;;;;5104028;28;19920;-70
2023/12/05 02:19:59;;;;;;;;;;;-0.80;99.90;;;;;;5104354;28;19951;-71
2023/12/05 02:22:41;;;;;;;;;;;-0.70;99.90;;;;;;5103976;28;19920;-71
2023/12/05 02:25:12;;;;;;;;;;;-0.70;99.90;;;;;;5104172;28;19959;-69
2023/12/05 02:27:41;;;;;;;;;;;-0.70;99.90;;;;;;5103989;28;19920;-70
2023/12/05 02:30:09;;;;;;;;;;;-0.60;99.90;;;;;;5096238;28;19943;-71
2023/12/05 02:32:36;;;;;;;;;;;-0.60;99.90;;;;;;5104233;28;19920;-70
2023/12/05 02:35:05;;;;;;;;;;;-0.50;99.90;;;;;;5103993;28;19920;-70
2023/12/05 02:37:34;;;;;;;;;;;-0.50;99.90;;;;;;5100671;28;19938;-71
2023/12/05 02:40:04;;;;;;;;;;;-0.40;99.90;;;;;;5095966;28;20169;-70
2023/12/05 02:42:32;;;;;;;;;;;-0.40;99.90;;;;;;5103732;28;19927;-71
2023/12/05 02:45:01;;;;;;;;;;;-0.40;99.90;;;;;;5103621;28;19988;-70
2023/12/05 02:47:29;;;;;;;;;;;-0.30;99.90;;;;;;5103633;28;19983;-70
2023/12/05 02:49:56;;;;;;;;;;;-0.30;99.90;;;;;;5103818;28;20087;-70
2023/12/05 02:52:23;;;;;;;;;;;-0.30;99.90;;;;;;5103554;28;19920;-71
2023/12/05 02:54:50;;;;;;;;;;;-0.30;99.90;;;;;;5103510;28;19983;-71
2023/12/05 02:57:16;;;;;;;;;;;-0.30;99.90;;;;;;5103666;28;20095;-71
2023/12/05 02:59:43;;;;;;;;;;;-0.20;99.90;;;;;;5103504;28;20114;-70
2023/12/05 03:02:11;;;;;;;;;;;-0.20;99.90;;;;;;5103715;28;19920;-71
2023/12/05 03:04:37;;;;;;;;;;;-0.20;99.90;;;;;;5103538;28;19959;-71
2023/12/05 03:07:04;;;;;;;;;;;-0.10;99.90;;;;;;5103664;28;19920;-71
2023/12/05 03:09:31;;;;;;;;;;;-0.10;99.90;;;;;;5103258;28;20212;-71
2023/12/05 03:11:57;;;;;;;;;;;-0.20;99.90;;;;;;5103628;28;19983;-71
2023/12/05 03:14:24;;;;;;;;;;;-0.10;99.90;;;;;;5102991;28;20203;-71
2023/12/05 03:16:51;;;;;;;;;;;-0.10;99.90;;;;;;5103504;28;19986;-71
2023/12/05 03:19:18;;;;;;;;;;;-0.10;99.90;;;;;;5103593;28;20113;-70
2023/12/05 03:21:45;;;;;;;;;;;-0.10;99.90;;;;;;5103607;28;19987;-71
2023/12/05 03:24:12;;;;;;;;;;;-0.10;99.90;;;;;;5103002;28;20267;-71
2023/12/05 03:26:38;;;;;;;;;;;-0.10;99.90;;;;;;5103511;28;19924;-70
2023/12/05 03:29:05;;;;;;;;;;;-0.10;99.90;;;;;;5103354;28;19926;-69
2023/12/05 03:31:34;;;;;;;;;;;-0.10;99.90;;;;;;5103149;28;19942;-71
2023/12/05 03:34:01;;;;;;;;;;;0.00;99.90;;;;;;5102902;28;20289;-70
2023/12/05 03:36:29;;;;;;;;;;;0.00;99.90;;;;;;5103250;28;19920;-70
2023/12/05 03:38:56;;;;;;;;;;;0.00;99.90;;;;;;5103107;28;20224;-70
2023/12/05 03:41:23;;;;;;;;;;;0.00;99.90;;;;;;5103075;28;19979;-70
2023/12/05 03:43:49;;;;;;;;;;;0.00;99.90;;;;;;5102948;28;20007;-71
2023/12/05 03:46:16;;;;;;;;;;;0.00;99.90;;;;;;5103384;28;19921;-71
2023/12/05 03:48:43;;;;;;;;;;;0.00;99.90;;;;;;5103245;28;19920;-71
2023/12/05 03:51:09;;;;;;;;;;;0.10;99.90;;;;;;5103013;28;19927;-71
2023/12/05 03:53:37;;;;;;;;;;;0.10;99.90;;;;;;5102982;28;19956;-70
2023/12/05 03:56:04;;;;;;;;;;;0.10;99.90;;;;;;5103121;28;20151;-71
2023/12/05 03:58:31;;;;;;;;;;;0.00;99.90;;;;;;5103177;28;19920;-71
2023/12/05 04:00:57;;;;;;;;;;;0.10;99.90;;;;;;5103148;28;20339;-71
2023/12/05 04:03:24;;;;;;;;;;;0.10;99.90;;;;;;5103032;28;19983;-70
2023/12/05 04:05:51;;;;;;;;;;;0.10;99.90;;;;;;5103053;28;19955;-71
2023/12/05 04:08:17;;;;;;;;;;;0.10;99.90;;;;;;5103158;28;19920;-71
2023/12/05 04:10:45;;;;;;;;;;;0.10;99.90;;;;;;5102696;28;19983;-69
2023/12/05 04:13:12;;;;;;;;;;;0.10;99.90;;;;;;5102519;28;19962;-69
2023/12/05 04:15:39;;;;;;;;;;;0.10;99.90;;;;;;5102799;28;19920;-70
2023/12/05 04:18:06;;;;;;;;;;;0.10;99.90;;;;;;5102370;28;20121;-71
2023/12/05 04:20:32;;;;;;;;;;;0.20;99.90;;;;;;5103582;28;19987;-70
2023/12/05 04:22:59;;;;;;;;;;;0.30;99.90;;;;;;5106671;28;20165;-70
2023/12/05 04:25:25;;;;;;;;;;;0.20;99.90;;;;;;5106486;28;19983;-71
2023/12/05 04:27:53;;;;;;;;;;;0.30;99.90;;;;;;5106540;28;19969;-71
2023/12/05 04:30:20;;;;;;;;;;;0.30;99.90;;;;;;5106636;28;19983;-71
2023/12/05 04:32:47;;;;;;;;;;;0.40;99.90;;;;;;5106030;28;19927;-71
2023/12/05 04:35:15;;;;;;;;;;;0.40;99.90;;;;;;5105959;28;19974;-71
2023/12/05 04:37:41;;;;;;;;;;;0.40;99.90;;;;;;5106261;28;19964;-71
2023/12/05 04:40:09;;;;;;;;;;;0.40;99.90;;;;;;5106193;28;20091;-71
2023/12/05 04:42:36;;;;;;;;;;;0.40;99.90;;;;;;5106295;28;19967;-71
2023/12/05 04:45:04;;;;;;;;;;;0.40;99.90;;;;;;5106071;28;19938;-71
2023/12/05 04:47:31;;;;;;;;;;;0.40;99.90;;;;;;5106108;28;19955;-69
2023/12/05 04:49:58;;;;;;;;;;;0.40;99.90;;;;;;5105763;28;19955;-71
2023/12/05 04:52:24;;;;;;;;;;;0.40;99.90;;;;;;5106017;28;19988;-71
2023/12/05 04:54:51;;;;;;;;;;;0.40;99.90;;;;;;5105892;28;19920;-70
2023/12/05 04:57:17;;;;;;;;;;;0.40;99.90;;;;;;5105933;28;20007;-71
2023/12/05 04:59:44;;;;;;;;;;;0.30;99.90;;;;;;5105820;28;19957;-71
2023/12/05 05:02:13;;;;;;;;;;;0.30;99.90;;;;;;5105442;28;19982;-73
2023/12/05 05:04:40;;;;;;;;;;;0.20;99.90;;;;;;5105509;28;19921;-71
2023/12/05 05:07:07;;;;;;;;;;;0.20;99.90;;;;;;5105812;28;20208;-71
2023/12/05 05:09:35;;;;;;;;;;;0.10;99.90;;;;;;5105415;28;19963;-71
2023/12/05 05:12:01;;;;;;;;;;;0.10;99.90;;;;;;5105592;28;19963;-70
2023/12/05 05:14:28;;;;;;;;;;;0.10;99.90;;;;;;5104939;28;19979;-72
2023/12/05 05:16:54;;;;;;;;;;;0.00;99.90;;;;;;5105436;28;19920;-71
2023/12/05 05:19:22;;;;;;;;;;;0.00;99.90;;;;;;5105123;28;19963;-71
2023/12/05 05:21:49;;;;;;;;;;;-0.10;99.90;;;;;;5102703;28;20296;-70
2023/12/05 05:24:16;;;;;;;;;;;-0.10;99.90;;;;;;5105034;28;19920;-70
2023/12/05 05:26:42;;;;;;;;;;;-0.10;99.90;;;;;;5097009;28;19920;-70
2023/12/05 05:29:09;;;;;;;;;;;-0.10;99.90;;;;;;5105033;28;19920;-73
2023/12/05 05:31:36;;;;;;;;;;;-0.10;99.90;;;;;;5105330;28;19926;-70
2023/12/05 05:34:03;;;;;;;;;;;-0.20;99.90;;;;;;5105029;28;19974;-71
2023/12/05 05:36:31;;;;;;;;;;;-0.20;99.90;;;;;;5105127;28;19920;-71
2023/12/05 05:38:58;;;;;;;;;;;-0.20;99.90;;;;;;5105153;28;19983;-69
2023/12/05 05:41:24;;;;;;;;;;;-0.20;99.90;;;;;;5105343;28;19920;-71
2023/12/05 05:43:51;;;;;;;;;;;-0.30;99.90;;;;;;5104530;28;20114;-71
2023/12/05 05:46:18;;;;;;;;;;;-0.30;99.90;;;;;;5105044;28;19920;-69
2023/12/05 05:48:44;;;;;;;;;;;-0.30;99.90;;;;;;5104712;28;19951;-68
2023/12/05 05:51:11;;;;;;;;;;;-0.40;99.90;;;;;;5104698;28;19983;-69
2023/12/05 05:53:39;;;;;;;;;;;-0.30;99.90;;;;;;5104568;28;19927;-70
2023/12/05 05:56:06;;;;;;;;;;;-0.30;99.90;;;;;;5104413;28;19979;-69
2023/12/05 05:58:33;;;;;;;;;;;-0.30;99.90;;;;;;5104178;28;20269;-69
2023/12/05 06:00:59;;;;;;;;;;;-0.30;99.90;;;;;;5104552;28;19987;-70
2023/12/05 06:03:28;;;;;;;;;;;-0.30;99.90;;;;;;5104150;28;19920;-69
2023/12/05 06:05:54;;;;;;;;;;;-0.40;99.90;;;;;;5104246;28;19958;-69
2023/12/05 06:08:21;;;;;;;;;;;-0.40;99.90;;;;;;5104410;28;19928;-68
2023/12/05 06:10:50;;;;;;;;;;;-0.40;99.90;;;;;;5104303;28;20126;-70
2023/12/05 06:13:16;;;;;;;;;;;-0.50;99.90;;;;;;5103907;28;19926;-69
2023/12/05 06:15:43;;;;;;;;;;;-0.50;99.90;;;;;;5095152;28;20230;-69
2023/12/05 06:18:11;;;;;;;;;;;-0.50;99.90;;;;;;5096477;28;19926;-69
2023/12/05 06:20:37;;;;;;;;;;;-0.50;99.90;;;;;;5104189;28;20158;-70
2023/12/05 06:23:04;;;;;;;;;;;-0.50;99.90;;;;;;5103987;28;19983;-69
2023/12/05 06:25:30;;;;;;;;;;;-0.50;99.90;;;;;;5104062;28;20242;-69
2023/12/05 06:27:59;;;;;;;;;;;-0.50;99.90;;;;;;5103824;28;19920;-69
2023/12/05 06:30:25;;;;;;;;;;;-0.60;99.90;;;;;;5104104;28;19920;-69
2023/12/05 06:32:52;;;;;;;;;;;-0.50;99.90;;;;;;5097308;28;19952;-73
2023/12/05 06:35:19;;;;;;;;;;;-0.50;99.90;;;;;;5103563;28;19920;-70
2023/12/05 06:37:45;;;;;;;;;;;-0.60;99.90;;;;;;5103292;28;19998;-70
2023/12/05 06:40:12;;;;;;;;;;;-0.60;99.90;;;;;;5103659;28;19924;-69
2023/12/05 06:42:40;;;;;;;;;;;-0.70;99.90;;;;;;5100974;28;19979;-69
2023/12/05 06:45:09;;;;;;;;;;;-0.70;99.90;;;;;;5102893;28;19920;-69
2023/12/05 06:47:35;;;;;;;;;;;-0.70;99.90;;;;;;5110945;28;19919;-69
2023/12/05 06:50:05;;;;;;;;;;;-0.60;99.90;;;;;;5102208;28;19987;-69
2023/12/05 06:52:31;;;;;;;;;;;-0.60;99.90;;;;;;5098704;28;20161;-69
2023/12/05 06:54:58;;;;;;;;;;;-0.60;99.90;;;;;;5103047;28;19920;-69
2023/12/05 06:57:25;;;;;;;;;;;-0.60;99.90;;;;;;5103613;28;20164;-69
2023/12/05 06:59:51;;;;;;;;;;;-0.50;99.90;;;;;;5103556;28;19927;-69
2023/12/05 07:02:19;;;;;;;;;;;-0.50;99.90;;;;;;5103434;28;19927;-72
2023/12/05 07:04:46;;;;;;;;;;;-0.50;99.90;;;;;;5103291;28;19955;-68
2023/12/05 07:07:12;;;;;;;;;;;-0.40;99.90;;;;;;5103350;28;19920;-69
2023/12/05 07:09:39;;;;;;;;;;;-0.50;99.90;;;;;;5098887;28;19920;-69
2023/12/05 07:12:06;;;;;;;;;;;-0.40;99.90;;;;;;5103140;28;19920;-70
2023/12/05 07:14:34;;;;;;;;;;;-0.40;99.90;;;;;;5102615;28;19976;-70
2023/12/05 07:17:01;;;;;;;;;;;-0.50;99.90;;;;;;5103166;28;20120;-70
2023/12/05 07:19:29;;;;;;;;;;;-0.40;99.90;;;;;;5103227;28;19987;-70
2023/12/05 07:21:55;;;;;;;;;;;-0.50;99.90;;;;;;5098799;28;19956;-69
2023/12/05 07:24:22;;;;;;;;;;;-0.50;99.90;;;;;;5102617;28;19987;-70
2023/12/05 07:26:49;;;;;;;;;;;-0.50;99.90;;;;;;5103183;28;19962;-70
2023/12/05 07:29:15;;;;;;;;;;;-0.50;99.90;;;;;;5102950;28;20209;-70
2023/12/05 07:31:42;;;;;;;;;;;-0.40;99.90;;;;;;5103101;28;19920;-74
2023/12/05 07:34:08;;;;;;;;;;;-0.40;99.90;;;;;;5103108;28;19981;-69
2023/12/05 07:36:39;;;;;;;;;;;-0.30;99.90;;;;;;5103242;28;19987;-73
2023/12/05 07:39:06;;;;;;;;;;;-0.30;99.90;;;;;;5100791;28;19951;-71
2023/12/05 07:41:33;;;;;;;;;;;-0.20;99.90;;;;;;5102139;28;19966;-70
2023/12/05 07:43:59;;;;;;;;;;;-0.10;99.90;;;;;;5102681;28;19920;-71
2023/12/05 07:46:26;;;;;;;;;;;-0.10;99.90;;;;;;5102678;28;20258;-70
2023/12/05 07:48:52;;;;;;;;;;;-0.10;99.90;;;;;;5100656;28;20323;-71
2023/12/05 07:51:19;;;;;;;;;;;0.00;99.90;;;;;;5096825;28;19920;-70
2023/12/05 07:53:49;;;;;;;;;;;0.00;99.90;;;;;;5102413;28;20114;-70
2023/12/05 07:56:15;;;;;;;;;;;0.00;99.90;;;;;;5104673;28;19927;-70
2023/12/05 07:58:42;;;;;;;;;;;0.00;99.90;;;;;;5106487;28;19920;-69
2023/12/05 08:01:09;;;;;;;;;;;0.00;99.90;;;;;;5104384;28;20288;-70
2023/12/05 08:03:35;;;;;;;;;;;0.00;99.90;;;;;;5106311;28;19979;-71
2023/12/05 08:06:02;;;;;;;;;;;0.10;99.90;;;;;;5104442;28;19928;-71
2023/12/05 08:08:30;;;;;;;;;;;0.10;99.90;;;;;;5104309;28;19920;-71
2023/12/05 08:10:58;;;;;;;;;;;0.10;99.90;;;;;;5106027;28;19957;-71
2023/12/05 08:13:25;;;;;;;;;;;0.10;99.90;;;;;;5105999;28;19979;-71
2023/12/05 08:15:52;;;;;;;;;;;0.10;99.90;;;;;;5105834;28;19922;-71
2023/12/05 08:18:18;;;;;;;;;;;0.20;99.90;;;;;;5106258;28;19942;-71
2023/12/05 08:20:45;;;;;;;;;;;0.20;99.90;;;;;;5106147;28;19988;-71
2023/12/05 08:23:11;;;;;;;;;;;0.20;99.90;;;;;;5104394;28;19928;-73
2023/12/05 08:25:38;;;;;;;;;;;0.20;99.90;;;;;;5104083;28;19979;-71
2023/12/05 08:28:06;;;;;;;;;;;0.20;99.90;;;;;;5105532;28;19984;-71
2023/12/05 08:30:33;;;;;;;;;;;0.30;99.90;;;;;;5105970;28;19924;-71
2023/12/05 08:33:00;;;;;;;;;;;0.30;99.90;;;;;;5105711;28;19921;-71
2023/12/05 08:35:28;;;;;;;;;;;0.30;99.90;;;;;;5106179;28;19961;-71
2023/12/05 08:37:55;;;;;;;;;;;0.40;99.90;;;;;;5102204;28;20257;-70
2023/12/05 08:40:21;;;;;;;;;;;0.40;99.90;;;;;;5105871;28;19920;-71
2023/12/05 08:42:48;;;;;;;;;;;0.40;99.90;;;;;;5105623;28;19952;-70
2023/12/05 08:45:16;;;;;;;;;;;0.50;99.90;;;;;;5105387;28;20237;-70
2023/12/05 08:47:42;;;;;;;;;;;0.50;99.90;;;;;;5105503;28;20193;-71
2023/12/05 08:50:09;;;;;;;;;;;0.60;99.90;;;;;;5105523;28;19979;-71
2023/12/05 08:52:36;;;;;;;;;;;0.70;99.90;;;;;;5105334;28;19927;-71
2023/12/05 08:55:03;;;;;;;;;;;0.70;99.90;;;;;;5105191;28;19938;-72
2023/12/05 08:57:30;;;;;;;;;;;0.80;99.90;;;;;;5105627;28;19991;-71
2023/12/05 08:59:56;;;;;;;;;;;0.80;99.90;;;;;;5105562;28;19920;-71
2023/12/05 09:02:25;;;;;;;;;;;0.80;99.90;;;;;;5105473;28;19920;-71
2023/12/05 09:04:51;;;;;;;;;;;0.90;99.90;;;;;;5104895;28;19929;-71
2023/12/05 09:07:18;;;;;;;;;;;0.90;99.90;;;;;;5105139;28;20122;-71
2023/12/05 09:09:44;;;;;;;;;;;0.90;99.90;;;;;;5105200;28;19983;-70
2023/12/05 09:12:11;;;;;;;;;;;1.00;99.90;;;;;;5105620;28;20146;-70
2023/12/05 09:14:38;;;;;;;;;;;1.00;99.90;;;;;;5104579;28;19920;-71
2023/12/05 09:17:04;;;;;;;;;;;1.10;99.90;;;;;;5105074;28;19983;-75
2023/12/05 09:19:32;;;;;;;;;;;1.20;99.90;;;;;;5105171;28;19992;-70
2023/12/05 09:21:59;;;;;;;;;;;1.20;99.90;;;;;;5104970;28;19999;-69
2023/12/05 09:24:26;;;;;;;;;;;1.30;99.90;;;;;;5101219;28;20232;-70
2023/12/05 09:26:52;;;;;;;;;;;1.40;99.90;;;;;;5105021;28;19920;-71
2023/12/05 09:29:19;;;;;;;;;;;1.40;99.90;;;;;;5103106;28;19920;-69
2023/12/05 09:31:46;;;;;;;;;;;1.40;99.90;;;;;;5102833;28;19958;-70
2023/12/05 09:34:12;;;;;;;;;;;1.40;99.90;;;;;;5100988;28;20109;-70
2023/12/05 09:36:40;;;;;;;;;;;1.50;99.90;;;;;;5104853;28;20167;-69
2023/12/05 09:39:07;;;;;;;;;;;1.50;99.90;;;;;;5105832;28;20004;-69
2023/12/05 09:41:39;;;;;;;;;;;1.50;99.90;;;;;;5103634;28;19920;-69
2023/12/05 09:44:05;;;;;;;;;;;1.60;99.90;;;;;;5104315;28;19920;-71
2023/12/05 09:46:34;;;;;;;;;;;1.70;99.90;;;;;;5104235;28;19920;-71
2023/12/05 09:49:01;;;;;;;;;;;1.70;99.90;;;;;;5104077;28;19956;-69
2023/12/05 09:51:28;;;;;;;;;;;1.80;99.90;;;;;;5103195;28;19931;-68
2023/12/05 09:53:56;;;;;;;;;;;1.90;99.90;;;;;;5099835;28;19926;-69
2023/12/05 09:56:23;;;;;;;;;;;2.00;99.90;;;;;;5103141;28;19979;-69
2023/12/05 09:58:50;;;;;;;;;;;2.00;99.90;;;;;;5096990;28;19942;-68
2023/12/05 10:01:17;;;;;;;;;;;2.10;99.90;;;;;;5097669;28;19983;-72
2023/12/05 10:03:44;;;;;;;;;;;2.20;99.90;;;;;;5102196;28;19920;-71
2023/12/05 10:06:11;;;;;;;;;;;2.30;99.90;;;;;;5097499;28;19920;-69
2023/12/05 10:08:38;;;;;;;;;;;2.40;99.90;;;;;;5101877;28;19923;-68
2023/12/05 10:13:59;;;;;;;;;;;2.50;99.90;;;;;;5046138;28;20019;-70
2023/12/05 10:16:25;;;;;;;;;;;2.60;99.90;;;;;;5099699;28;19920;-70
2023/12/05 10:18:52;;;;;;;;;;;2.80;99.90;;;;;;5101856;28;20265;-70
2023/12/05 10:21:19;;;;;;;;;;;2.90;99.90;;;;;;5097920;28;19991;-71
2023/12/05 10:23:45;;;;;;;;;;;3.10;99.90;;;;;;5106238;28;20267;-70
2023/12/05 10:26:12;;;;;;;;;;;3.30;99.90;;;;;;5096542;28;19925;-69
2023/12/05 10:28:51;;;;;;;;;;;3.50;99.90;;;;;;5099453;28;19999;-70
2023/12/05 10:31:18;;;;;;;;;;;3.60;99.90;;;;;;5102319;28;19920;-71
2023/12/05 10:33:44;;;;;;;;;;;3.60;99.90;;;;;;5103286;28;19983;-70
2023/12/05 10:36:12;;;;;;;;;;;3.60;99.90;;;;;;5104175;28;20151;-71
2023/12/05 10:38:38;;;;;;;;;;;3.60;99.90;;;;;;5102736;28;19947;-71
2023/12/05 10:41:05;;;;;;;;;;;3.50;99.90;;;;;;5103469;28;19920;-70
2023/12/05 10:43:31;;;;;;;;;;;3.40;99.90;;;;;;5100325;28;19920;-71
2023/12/05 10:46:03;;;;;;;;;;;3.40;99.90;;;;;;5101581;28;20217;-71
2023/12/05 10:48:29;;;;;;;;;;;3.30;99.90;;;;;;5097799;28;19920;-70
2023/12/05 10:50:56;;;;;;;;;;;3.30;99.90;;;;;;5101567;28;19920;-69
2023/12/05 10:53:23;;;;;;;;;;;3.20;99.90;;;;;;5101660;28;19920;-69
2023/12/05 10:55:50;;;;;;;;;;;3.40;99.90;;;;;;5101591;28;19992;-69
2023/12/05 10:58:17;;;;;;;;;;;3.50;99.90;;;;;;5103213;28;19991;-69
2023/12/05 11:00:44;;;;;;;;;;;3.50;99.90;;;;;;5103012;28;19928;-69
2023/12/05 11:03:13;;;;;;;;;;;3.50;99.90;;;;;;5096463;22;19921;-94
2023/12/05 11:05:40;;;;;;;;;;;3.50;99.90;;;;;;5064700;28;19921;-91
2023/12/05 11:08:07;;;;;;;;;;;3.50;99.90;;;;;;5070239;28;19927;-92
2023/12/05 11:10:34;;;;;;;;;;;3.40;99.90;;;;;;5066549;28;19921;-93
2023/12/05 11:13:02;;;;;;;;;;;3.50;99.90;;;;;;5074212;28;19920;-92
2023/12/05 11:15:29;;;;;;;;;;;3.40;99.90;;;;;;5073583;28;19928;-92
2023/12/05 11:17:59;;;;;;;;;;;3.50;99.90;;;;;;5069402;28;19951;-92
2023/12/05 11:20:37;;;;;;;;;;;3.50;99.90;;;;;;5071186;28;19928;-91
2023/12/05 11:23:12;;;;;;;;;;;3.50;99.90;;;;;;5080539;28;19928;-92
2023/12/05 11:25:48;;;;;;;;;;;3.60;99.90;;;;;;5080095;28;19921;-92
2023/12/05 11:28:29;;;;;;;;;;;3.80;99.90;;;;;;5067873;28;19980;-92
2023/12/05 11:31:00;;;;;;;;;;;3.50;99.90;;;;;;5070434;28;19921;-91
2023/12/05 11:33:39;;;;;;;;;;;4.30;99.90;;;;;;5073955;28;19948;-92
2023/12/05 11:36:10;;;;;;;;;;;4.60;99.90;;;;;;5080138;28;19984;-92
2023/12/05 11:38:37;;;;;;;;;;;4.90;99.90;;;;;;5079704;28;19928;-92
2023/12/05 11:41:13;;;;;;;;;;;4.90;99.90;;;;;;5073964;28;19932;-91
2023/12/05 11:43:42;;;;;;;;;;;5.00;99.90;;;;;;5073289;28;19920;-91
2023/12/05 11:46:09;;;;;;;;;;;5.10;99.90;;;;;;5071406;28;19942;-92
2023/12/05 11:48:36;;;;;;;;;;;5.20;99.90;;;;;;5076441;28;19980;-91
2023/12/05 11:51:03;;;;;;;;;;;5.40;99.90;;;;;;5076913;28;19951;-91
2023/12/05 11:53:31;;;;;;;;;;;5.30;99.90;;;;;;5077251;28;19988;-91
2023/12/05 11:55:58;;;;;;;;;;;5.50;99.90;;;;;;5078855;28;19921;-91
2023/12/05 11:58:31;;;;;;;;;;;5.60;99.90;;;;;;5072958;28;19921;-92
2023/12/05 12:01:02;;;;;;;;;;;5.60;99.90;;;;;;5081703;28;19921;-91
2023/12/05 12:03:29;;;;;;;;;;;5.70;99.90;;;;;;5082414;28;19948;-91
2023/12/05 12:06:01;;;;;;;;;;;5.80;99.90;;;;;;5073845;28;19922;-91
2023/12/05 12:08:28;;;;;;;;;;;5.80;99.90;;;;;;5077907;28;19972;-92
2023/12/05 12:10:57;;;;;;;;;;;5.90;99.90;;;;;;5080643;28;19945;-92
2023/12/05 12:13:23;;;;;;;;;;;6.00;99.90;;;;;;5077641;28;19921;-92
2023/12/05 12:15:49;;;;;;;;;;;6.10;99.90;;;;;;5071840;28;20267;-91
2023/12/05 12:18:23;;;;;;;;;;;6.30;99.90;;;;;;5070068;28;19917;-91
2023/12/05 12:20:51;;;;;;;;;;;6.40;99.90;;;;;;5074157;28;19948;-91
2023/12/05 12:23:18;;;;;;;;;;;6.50;99.90;;;;;;5084121;28;19920;-91
2023/12/05 12:25:50;;;;;;;;;;;6.60;99.90;;;;;;5071638;28;19947;-91
2023/12/05 12:28:25;;;;;;;;;;;6.70;99.90;;;;;;5075433;28;19925;-91
2023/12/05 12:30:53;;;;;;;;;;;6.80;99.90;;;;;;5072410;28;19928;-92
2023/12/05 12:33:22;;;;;;;;;;;6.80;99.90;;;;;;5078362;28;19920;-91
2023/12/05 12:35:49;;;;;;;;;;;6.80;99.90;;;;;;5070192;28;20133;-91
2023/12/05 12:38:16;;;;;;;;;;;6.80;99.90;;;;;;5076946;28;19921;-91
2023/12/05 12:40:43;;;;;;;;;;;6.80;99.90;;;;;;5070294;28;19930;-91
2023/12/05 12:43:14;;;;;;;;;;;6.80;99.90;;;;;;5077268;28;19976;-91
2023/12/05 12:45:42;;;;;;;;;;;6.80;99.90;;;;;;5071987;28;20004;-91
2023/12/05 12:48:09;;;;;;;;;;;6.70;99.90;;;;;;5065411;28;19920;-91
2023/12/05 12:50:35;;;;;;;;;;;6.50;99.90;;;;;;5072577;28;19980;-91
2023/12/05 12:53:02;;;;;;;;;;;6.10;99.90;;;;;;5072433;28;19985;-91
2023/12/05 12:55:29;;;;;;;;;;;5.60;99.90;;;;;;5072529;28;19944;-92
2023/12/05 12:57:55;;;;;;;;;;;5.30;99.90;;;;;;5072169;28;20129;-92
2023/12/05 13:00:22;;;;;;;;;;;5.10;99.90;;;;;;5070302;28;19956;-92
2023/12/05 13:02:53;;;;;;;;;;;4.90;99.90;;;;;;5081214;28;19987;-92
2023/12/05 13:05:29;;;;;;;;;;;4.80;99.90;;;;;;5072589;28;19928;-92
2023/12/05 13:07:56;;;;;;;;;;;4.70;99.90;;;;;;5084283;28;19968;-91
2023/12/05 13:10:24;;;;;;;;;;;4.70;99.90;;;;;;5077827;28;19940;-92
2023/12/05 13:12:50;;;;;;;;;;;4.70;99.90;;;;;;5078915;28;19921;-91
2023/12/05 13:15:20;;;;;;;;;;;4.60;99.90;;;;;;5078107;28;19984;-92
2023/12/05 13:17:57;;;;;;;;;;;4.60;99.90;;;;;;5072419;28;19927;-91
2023/12/05 13:20:24;;;;;;;;;;;4.60;99.90;;;;;;5082718;28;19988;-92
2023/12/05 13:22:51;;;;;;;;;;;4.60;99.90;;;;;;5079370;28;19943;-93
2023/12/05 13:25:18;;;;;;;;;;;4.60;99.90;;;;;;5071238;28;19984;-92
2023/12/05 13:27:45;;;;;;;;;;;4.60;99.90;;;;;;5076988;28;19952;-91
2023/12/05 13:30:15;;;;;;;;;;;4.50;99.90;;;;;;5067393;28;19980;-91
2023/12/05 13:32:42;;;;;;;;;;;4.50;99.90;;;;;;5067470;28;20090;-91
2023/12/05 13:35:10;;;;;;;;;;;4.40;99.90;;;;;;5068591;28;19929;-92
2023/12/05 13:37:37;;;;;;;;;;;4.30;99.90;;;;;;5071576;28;19951;-91
2023/12/05 13:40:05;;;;;;;;;;;4.30;99.90;;;;;;5077090;28;19928;-91
2023/12/05 13:42:33;;;;;;;;;;;4.30;99.90;;;;;;5077265;28;19979;-92
2023/12/05 13:45:01;;;;;;;;;;;4.20;99.90;;;;;;5069354;28;19995;-92
2023/12/05 13:47:28;;;;;;;;;;;4.10;99.90;;;;;;5076240;28;19921;-91
2023/12/05 13:49:54;;;;;;;;;;;4.10;99.90;;;;;;5074551;28;19928;-92
2023/12/05 13:52:23;;;;;;;;;;;4.00;99.90;;;;;;5078942;28;19927;-92
2023/12/05 13:54:49;;;;;;;;;;;4.10;99.90;;;;;;5070303;28;19921;-92
2023/12/05 13:57:16;;;;;;;;;;;4.00;99.90;;;;;;5069982;28;19947;-92
2023/12/05 13:59:43;;;;;;;;;;;4.00;99.90;;;;;;5075022;28;19963;-91
2023/12/05 14:02:10;;;;;;;;;;;4.00;99.90;;;;;;5089275;28;19908;-92
2023/12/05 14:04:37;;;;;;;;;;;3.90;99.90;;;;;;5089134;28;19951;-91
2023/12/05 14:07:03;;;;;;;;;;;3.90;99.90;;;;;;5071302;28;19921;-91
2023/12/05 14:09:32;;;;;;;;;;;3.80;99.90;;;;;;5078612;28;19921;-92
2023/12/05 14:11:58;;;;;;;;;;;3.70;99.90;;;;;;5079836;28;20143;-92
2023/12/05 14:14:25;;;;;;;;;;;3.70;99.90;;;;;;5068374;28;19951;-91
2023/12/05 14:16:52;;;;;;;;;;;3.70;99.90;;;;;;5081377;28;19996;-94
2023/12/05 14:19:19;;;;;;;;;;;3.60;99.90;;;;;;5070484;28;19955;-93
2023/12/05 14:21:46;;;;;;;;;;;3.50;99.90;;;;;;5067059;28;19941;-92
2023/12/05 14:24:13;;;;;;;;;;;3.50;99.90;;;;;;5069363;28;20152;-91
2023/12/05 14:26:41;;;;;;;;;;;3.50;99.90;;;;;;5075547;28;19951;-93